createdAt,value
2023-03-29T00:00:02.362Z,44.529554664537045
2023-03-29T00:15:02.020Z,45.444733738354465
2023-03-29T00:30:01.705Z,45.33990021847212
2023-03-29T00:45:02.407Z,45.28020408348794
2023-03-29T01:00:02.088Z,45.13068120860353
2023-03-29T01:15:01.762Z,45.25899675616415
2023-03-29T01:30:01.479Z,44.85782169041102
2023-03-29T01:45:02.148Z,44.75759819640009
2023-03-29T02:00:01.806Z,44.9364834278514
2023-03-29T02:15:01.493Z,44.707828794651945
2023-03-29T02:30:02.161Z,44.03218508085294
2023-03-29T02:45:01.925Z,44.09940756346109
2023-03-29T03:00:01.619Z,44.48011826656683
2023-03-29T03:15:02.310Z,44.97795350136618
2023-03-29T03:30:01.983Z,45.12418191558506
2023-03-29T03:45:01.686Z,44.96324191564074
2023-03-29T04:00:01.631Z,45.43894819839591
2023-03-29T04:15:02.240Z,45.20816685557073
2023-03-29T04:30:01.903Z,45.07227423716001
2023-03-29T04:45:02.707Z,45.360158545347
2023-03-29T05:00:02.415Z,44.23753653479254
2023-03-29T05:15:02.049Z,44.73404711172638
2023-03-29T05:30:01.721Z,44.20328222571531
2023-03-29T05:45:02.335Z,44.48446012420102
2023-03-29T06:00:01.995Z,44.13913360405552
2023-03-29T06:15:01.655Z,44.734060538615
2023-03-29T06:30:02.333Z,44.88118367811394
2023-03-29T06:45:01.965Z,45.99085385364959
2023-03-29T07:00:01.522Z,46.12080216818763
2023-03-29T07:15:02.108Z,45.773210635837046
2023-03-29T07:30:01.754Z,44.964712497811966
2023-03-29T07:45:01.514Z,44.243448542786204
2023-03-29T08:00:02.169Z,43.74606254586261
2023-03-29T08:15:01.812Z,42.73557794563074
2023-03-29T08:30:01.470Z,42.0542005434929
2023-03-29T08:45:02.130Z,40.73648092582025
2023-03-29T09:00:01.871Z,41.12905171512716
2023-03-29T09:15:01.695Z,40.84590061076924
2023-03-29T09:30:01.349Z,41.016824594446426
2023-03-29T09:45:02.057Z,39.27419318303599
2023-03-29T10:00:01.795Z,37.180815331013186
2023-03-29T10:15:01.467Z,39.851393583354294
2023-03-29T10:30:02.162Z,39.62857166962324
2023-03-29T10:45:01.791Z,39.147810011689636
2023-03-29T11:00:01.386Z,36.74897097668702
2023-03-29T11:15:02.016Z,39.588591002619694
2023-03-29T11:30:01.691Z,42.08913738003058
2023-03-29T11:45:01.322Z,44.08748419503519
2023-03-29T12:00:02.302Z,43.73005986401277
2023-03-29T12:15:01.979Z,45.3747378190729
2023-03-29T12:30:01.646Z,44.732415165326785
2023-03-29T12:45:02.288Z,43.194912410678256
2023-03-29T13:00:01.908Z,44.69619961445277
2023-03-29T13:15:01.566Z,43.37718469916537
2023-03-29T13:30:02.220Z,44.44107149034158
2023-03-29T13:45:01.864Z,45.8967106303302
2023-03-29T14:00:01.432Z,44.37309638207209
2023-03-29T14:15:02.096Z,44.58021825789355
2023-03-29T14:30:01.824Z,44.911600111787365
2023-03-29T14:45:01.442Z,45.44058305099787
2023-03-29T15:00:02.093Z,44.13044294363789
2023-03-29T15:15:01.839Z,43.933018916767374
2023-03-29T15:30:01.506Z,42.736704004229644
2023-03-29T15:45:02.155Z,43.810842739994264
2023-03-29T16:00:01.802Z,43.155616023810325
2023-03-29T16:15:01.440Z,43.43271959012747
2023-03-29T16:30:02.103Z,43.36567773329477
2023-03-29T16:45:01.791Z,43.88694712994756
2023-03-29T17:00:01.394Z,43.98471471249728
2023-03-29T17:15:02.051Z,44.858189268570904
2023-03-29T17:30:01.697Z,45.72401039559954
2023-03-29T17:45:01.363Z,45.33488137711724
2023-03-29T18:00:02.051Z,45.202393084450854
2023-03-29T18:15:01.709Z,45.57264825262237
2023-03-29T18:30:01.376Z,46.36431718586173
2023-03-29T18:45:02.034Z,46.64059775304461
2023-03-29T19:00:01.666Z,47.68704342684626
2023-03-29T19:15:01.318Z,47.51639822676357
2023-03-29T19:30:01.997Z,47.267304127360184
2023-03-29T19:45:01.643Z,47.12698884257256
2023-03-29T20:00:01.670Z,46.519899705407305
2023-03-29T20:15:02.406Z,45.97571465766322
2023-03-29T20:30:02.113Z,46.10767270590149
2023-03-29T20:45:01.764Z,46.48886538378187
2023-03-29T21:00:02.388Z,47.72795385255013
2023-03-29T21:15:02.015Z,47.544152391441706
2023-03-29T21:30:01.677Z,47.365551023990946
2023-03-29T21:45:02.306Z,47.77507604323126
2023-03-29T22:00:01.987Z,47.83313396713983
2023-03-29T22:15:01.647Z,47.271824270941956
2023-03-29T22:30:02.330Z,46.85303495036649
2023-03-29T22:45:02.060Z,47.0613318245747
2023-03-29T23:00:01.686Z,46.633014957636306
2023-03-29T23:15:02.331Z,46.59366927172392
2023-03-29T23:30:02.027Z,47.77140791747848
2023-03-29T23:45:01.681Z,48.082797543960986
